Station: Griffith  

  Atmospheric Gas Attenuation - ITU Rec 676-11   ----------------- dB/100km -----------------
Date Time Temp RH % AH g/m3 Dew Point Wind Direction Speed kph Gust kph Barometer mB Rainfall Since 9am 24GHz 47GHz 76GHz 122GHz 134GHz 241GHz
08/05 12:30 15.5 67 8.86 9.4 28 37 1024.2 0 20.0 26.2 40.5 106.1 100.5 346.1
08/05 12:20 16 68 9.26 10.1 24 28 1024.2 0 20.9 26.7 41.8 109.7 105.2 362.3
08/05 12:10 15.9 68 9.21 10 30 33 1024.4 0 20.8 26.7 41.7 109.3 104.6 360.5
08/05 12:00 15.1 72 9.29 10.1 24 32 1024.6 0 21.0 27.1 42.4 111.3 106.8 368.0
08/05 11:50 15 73 9.36 10.2 24 28 1024.7 0 21.1 27.2 42.8 112.2 107.9 371.8
08/05 11:40 14.5 72 8.96 9.5 22 30 1024.8 0 20.3 26.7 41.4 108.6 103.2 355.4
08/05 11:30 14.7 75 9.44 10.3 24 33 1024.9 0 21.3 27.4 43.3 113.6 109.4 377.1
08/05 11:20 14.5 76 9.45 10.3 22 24 1025.1 0 21.4 27.5 43.4 114.0 109.9 378.6
08/05 11:10 13.6 79 9.3 10 26 30 1025.3 0 21.1 27.6 43.3 113.7 109.1 375.8
08/05 11:00 13.7 79 9.36 10.1 24 32 1025.4 0 21.2 27.6 43.5 114.2 109.8 378.2
08/05 10:50 13.5 79 9.24 9.9 24 28 1025.3 0 21.0 27.5 43.1 113.1 108.4 373.4
08/05 10:40 13.6 77 9.06 9.6 28 32 1025.3 0 20.6 27.2 42.3 111.0 105.8 364.4
08/05 10:30 13.9 76 9.11 9.7 26 33 1025.3 0 20.7 27.2 42.4 111.1 106.1 365.3
08/05 10:20 13.5 78 9.12 9.7 24 32 1025.3 0 20.7 27.3 42.6 111.8 106.8 367.7
08/05 10:10 13.1 82 9.36 10.1 24 28 1025.3 0 21.2 27.8 43.8 115.1 110.6 381.1
08/05 10:00 12.6 82 9.07 9.6 24 33 1025.3 0 20.6 27.5 42.9 112.5 107.4 369.5
08/05 09:50 12.7 84 9.35 10.1 24 28 1025.4 0 21.2 27.9 44.0 115.6 111.1 382.6
08/05 09:40 12.2 85 9.17 9.8 20 24 1025.4 0 20.9 27.8 43.5 114.3 109.3 376.3
08/05 09:30 11.6 86 8.94 9.3 26 35 1025.4 0 20.4 27.6 42.9 112.5 107.0 368.0
08/05 09:20 11.4 88 9.03 9.5 26 28 1025.5 0 20.6 27.8 43.4 113.9 108.5 373.4
08/05 09:10 10.7 89 8.74 9 24 26 1025.7 0 20.0 27.5 42.6 111.6 105.4 362.6
08/05 09:00 10.5 89 8.63 8.8 20 30 1025.6 0 19.8 27.4 42.2 110.6 104.2 358.1
08/05 08:50 10.1 91 8.61 8.7 19 26 1025.7 0 19.8 27.5 42.3 111.0 104.4 359.0
08/05 08:40 9.6 91 8.34 8.2 24 28 1025.7 0 19.2 27.2 41.5 108.6 101.3 348.0
08/05 08:30 9.4 91 8.23 8 20 26 1025.7 0 19.0 27.1 41.1 107.7 100.1 343.5
08/05 08:20 9.2 91 8.13 7.8 24 30 1025.8 0 18.8 27.0 40.8 106.8 98.9 339.6
08/05 08:10 8.9 90 7.89 7.4 20 22 1025.8 0 18.3 26.6 39.9 104.5 96.0 329.2
08/05 08:00 8.8 90 7.84 7.3 19 26 1025.8 0 18.2 26.6 39.8 104.1 95.4 327.2
08/05 07:50 8.8 89 7.75 7.1 19 24 1025.9 0 18.0 26.4 39.4 103.1 94.2 322.8
08/05 07:40 8.7 89 7.7 7 19 22 1025.8 0 17.9 26.4 39.2 102.6 93.6 320.8
08/05 07:30 8.7 89 7.7 7 20 28 1025.6 0 17.9 26.4 39.2 102.6 93.6 320.7
08/05 07:20 8.7 88 7.61 6.8 20 24 1025.7 0 17.7 26.2 38.8 101.6 92.3 316.4
08/05 07:10 8.7 89 7.7 7 17 19 1025.3 0 17.9 26.4 39.2 102.6 93.5 320.6
08/05 07:00 8.7 88 7.61 6.8 17 24 1025.1 0 17.7 26.2 38.8 101.6 92.3 316.3
08/05 06:50 8.6 89 7.65 6.9 19 22 1025.1 0 17.8 26.3 39.0 102.1 93.0 318.6
08/05 06:40 8.5 88 7.52 6.6 17 17 1025 0 17.5 26.1 38.5 100.8 91.3 312.7
08/05 06:30 8.6 88 7.56 6.7 15 20 1024.8 0 17.6 26.1 38.6 101.1 91.7 314.2
08/05 06:20 8.7 87 7.53 6.7 13 15 1024.8 0 17.5 26.1 38.5 100.6 91.2 312.3
08/05 06:10 8.7 87 7.53 6.7 15 17 1024.7 0 17.5 26.1 38.5 100.6 91.2 312.3
08/05 06:00 8.6 87 7.48 6.6 11 15 1024.8 0 17.4 26.0 38.3 100.2 90.6 310.3
08/05 05:50 8.5 87 7.43 6.5 11 13 1024.8 0 17.3 26.0 38.1 99.8 90.0 308.3
08/05 05:40 8.4 87 7.38 6.4 11 13 1024.8 0 17.2 25.9 38.0 99.4 89.5 306.3
08/05 05:30 8.3 88 7.42 6.4 9 13 1024.8 0 17.3 26.0 38.2 99.9 90.1 308.6
08/05 05:20 8.1 88 7.33 6.2 11 11 1024.7 0 17.1 25.9 37.9 99.2 89.1 305.1
08/05 05:10 7.8 89 7.27 6.1 7 9 1024.7 0 17.0 25.9 37.8 98.9 88.6 303.3
08/05 05:00 7.6 90 7.25 6.1 6 9 1024.7 0 17.0 25.9 37.8 98.9 88.6 303.1
08/05 04:50 7.3 89 7.04 5.6 7 9 1024.6 0 16.5 25.6 37.1 96.9 86.0 294.2
08/05 04:40 7.6 86 6.93 5.4 11 13 1024.6 0 16.3 25.4 36.5 95.4 84.2 287.8
08/05 04:30 7.9 85 6.98 5.5 13 17 1024.5 0 16.4 25.4 36.5 95.5 84.5 289.0
08/05 04:20 8 84 6.95 5.5 13 15 1024.6 0 16.3 25.3 36.4 95.1 84.0 287.3
08/05 04:10 7.9 84 6.9 5.4 15 17 1024.5 0 16.2 25.2 36.2 94.6 83.5 285.2
08/05 04:00 7.8 84 6.86 5.3 13 19 1024.5 0 16.1 25.2 36.1 94.3 83.0 283.7
08/05 03:50 7.6 85 6.85 5.2 13 15 1024.5 0 16.1 25.2 36.1 94.5 83.1 283.9
08/05 03:40 7.4 86 6.84 5.2 13 15 1024.4 0 16.1 25.3 36.2 94.6 83.2 284.2
08/05 03:30 7.1 87 6.79 5.1 13 15 1024.5 0 16.0 25.3 36.1 94.4 82.8 282.9
08/05 03:20 6.7 88 6.69 4.9 13 15 1024.5 0 15.8 25.2 35.9 93.8 81.9 279.6
08/05 03:10 6.4 89 6.64 4.7 11 13 1024.5 0 15.7 25.2 35.8 93.6 81.5 278.2
08/05 03:00 6.1 90 6.58 4.6 11 13 1024.5 0 15.6 25.2 35.7 93.3 81.0 276.4
08/05 02:50 6.1 89 6.51 4.4 11 11 1024.7 0 15.4 25.1 35.4 92.5 80.1 273.1
08/05 02:40 6.1 89 6.51 4.4 9 11 1024.6 0 15.4 25.1 35.4 92.5 80.1 273.1
08/05 02:30 6.3 88 6.52 4.5 11 13 1024.7 0 15.5 25.1 35.4 92.4 80.0 272.9
08/05 02:20 6.4 87 6.49 4.4 11 13 1024.8 0 15.4 25.0 35.2 92.0 79.5 271.1
08/05 02:10 6.6 86 6.5 4.4 13 15 1024.8 0 15.4 24.9 35.2 91.8 79.4 270.9
08/05 02:00 6.5 86 6.45 4.3 11 13 1025 0 15.3 24.9 35.0 91.4 78.9 268.9
08/05 01:50 6.6 85 6.42 4.3 9 11 1025 0 15.2 24.8 34.9 91.0 78.4 267.2
08/05 01:40 6.5 86 6.45 4.3 9 11 1025.1 0 15.3 24.9 35.0 91.4 78.9 269.0
08/05 01:30 6.6 84 6.34 4.1 9 11 1025.3 0 15.1 24.7 34.5 90.1 77.3 263.5
08/05 01:20 6.9 82 6.32 4 9 9 1025.1 0 15.0 24.6 34.3 89.6 76.7 261.5
08/05 01:10 7.3 79 6.24 3.9 11 13 1025.1 0 14.8 24.3 33.8 88.2 75.3 256.4
08/05 01:00 7.6 77 6.21 3.8 13 17 1025.2 0 14.7 24.2 33.6 87.6 74.6 254.1
08/05 00:50 7.9 77 6.33 4.1 13 15 1025.2 0 15.0 24.3 33.9 88.5 75.9 258.7
08/05 00:40 7.8 79 6.45 4.4 13 15 1025.2 0 15.2 24.5 34.5 89.9 77.6 264.6
08/05 00:20 7 85 6.59 4.7 7 9 1025.5 0 15.6 25.0 35.4 92.4 80.3 274.0
08/05 00:10 6.7 85 6.46 4.4 7 7 1025.5 0 15.3 24.9 35.0 91.3 78.8 268.8
08/05 00:00 6.8 85 6.5 4.5 6 7 1025.5 0 15.4 24.9 35.1 91.7 79.3 270.4
07/05 23:50 6.7 87 6.61 4.7 6 6 1025.7 0 15.6 25.1 35.6 93.0 80.9 276.0
07/05 23:40 6.2 87 6.4 4.2 7 7 1025.7 0 15.2 24.9 35.0 91.3 78.5 267.7
07/05 23:30 6.1 85 6.21 3.8 6 7 1025.6 0 14.8 24.6 34.2 89.3 76.1 259.0
07/05 23:20 6.2 84 6.18 3.7 6 7 1025.5 0 14.7 24.6 34.1 88.9 75.6 257.3
07/05 23:10 6.3 81 6 3.3 7 9 1025.5 0 14.3 24.2 33.3 86.8 73.1 248.5
07/05 23:00 6.5 79 5.93 3.1 6 7 1025.5 0 14.2 24.1 32.9 85.8 71.9 244.6
07/05 22:50 6.5 78 5.85 2.9 6 6 1025.7 0 14.0 23.9 32.6 85.0 70.9 240.9
07/05 22:40 6.6 78 5.89 3 7 7 1025.8 0 14.1 24.0 32.7 85.3 71.3 242.5
07/05 22:30 6.6 81 6.12 3.6 7 9 1025.7 0 14.6 24.4 33.7 87.8 74.4 253.2
07/05 22:20 7 77 5.97 3.3 7 9 1025.9 0 14.2 24.0 32.9 85.7 72.0 245.0
07/05 22:10 7.2 76 5.97 3.3 9 11 1026 0 14.2 24.0 32.8 85.5 71.9 244.4
07/05 22:00 7.2 76 5.97 3.3 7 9 1025.8 0 14.2 24.0 32.8 85.5 71.8 244.4
07/05 21:50 7.3 74 5.85 3 7 9 1025.9 0 14.0 23.7 32.3 84.1 70.2 238.5
07/05 21:40 7.7 73 5.92 3.2 11 11 1025.9 0 14.1 23.7 32.4 84.5 70.7 240.5
07/05 21:30 7.8 73 5.96 3.3 11 15 1025.7 0 14.2 23.8 32.5 84.8 71.2 242.0
07/05 21:20 7.9 72 5.92 3.2 11 13 1025.8 0 14.1 23.7 32.3 84.2 70.5 239.9
07/05 21:10 8 72 5.95 3.3 11 13 1025.7 0 14.2 23.7 32.4 84.4 70.8 241.0
07/05 21:00 8 72 5.95 3.3 11 15 1025.5 0 14.2 23.7 32.4 84.4 70.8 240.9
07/05 20:50 8.2 71 5.95 3.3 11 13 1025.5 0 14.2 23.7 32.3 84.2 70.6 240.3
07/05 20:40 8.2 70 5.86 3.1 11 13 1025.5 0 14.0 23.5 32.0 83.3 69.5 236.2
07/05 20:30 8.5 68 5.81 2.9 11 15 1025.5 0 13.8 23.4 31.6 82.4 68.6 233.1
07/05 20:20 8.6 68 5.85 3 13 15 1025.5 0 13.9 23.4 31.8 82.7 69.0 234.6
07/05 20:10 8.7 67 5.8 2.9 11 13 1025.7 0 13.8 23.3 31.5 82.1 68.3 232.1
07/05 20:00 8.9 66 5.78 2.9 11 17 1025.7 0 13.8 23.2 31.4 81.7 67.9 230.6
07/05 19:50 9.4 63 5.7 2.7 15 15 1025.8 0 13.6 23.0 30.9 80.4 66.4 225.6

Last Refresh: 08-May-2026 12:08:01

Bureau of Meteorology